Time;durP1;ratioP1;P1;durP2;ratioP2;P2;SDS_P1;SDS_P2;PMS_P1;PMS_P2;Temp;Humidity;BMP_temperature;BMP_pressure;BME280_temperature;BME280_humidity;BME280_pressure;Samples;Min_cycle;Max_cycle;Signal;HPM_P1;HPM_P2
2021/03/28 00:01:51;;;;;;;;;;;13.50;55.20;;;;;;4951255;28;74983;-67
2021/03/28 00:04:18;;;;;;;;;;;13.40;55.30;;;;;;4966323;28;74697;-67
2021/03/28 00:06:47;;;;;;;;;;;13.40;55.50;;;;;;4951796;28;75221;-66
2021/03/28 00:09:18;;;;;;;;;;;13.40;55.60;;;;;;4951286;28;75225;-66
2021/03/28 00:11:53;;;;;;;;;;;13.30;55.70;;;;;;4949311;28;74787;-66
2021/03/28 00:14:37;;;;;;;;;;;13.20;55.90;;;;;;4951520;28;74347;-66
2021/03/28 00:17:07;;;;;;;;;;;13.20;56.10;;;;;;4950789;28;76421;-66
2021/03/28 00:19:34;;;;;;;;;;;13.20;56.10;;;;;;4951348;28;74907;-67
2021/03/28 00:22:02;;;;;;;;;;;13.20;56.50;;;;;;4949441;28;75456;-67
2021/03/28 00:24:39;;;;;;;;;;;13.20;56.50;;;;;;4949514;28;77418;-67
2021/03/28 00:27:08;;;;;;;;;;;13.10;56.80;;;;;;4950997;28;75411;-66
2021/03/28 00:29:43;;;;;;;;;;;13.10;56.70;;;;;;4949598;28;77936;-66
2021/03/28 00:32:11;;;;;;;;;;;13.10;56.60;;;;;;4951492;28;74489;-67
2021/03/28 00:34:42;;;;;;;;;;;13.00;56.70;;;;;;4952579;28;76239;-67
2021/03/28 00:37:07;;;;;;;;;;;13.00;56.70;;;;;;4951079;28;76622;-66
2021/03/28 00:39:42;;;;;;;;;;;13.00;56.80;;;;;;4949132;28;76029;-66
2021/03/28 00:42:12;;;;;;;;;;;13.00;56.90;;;;;;4949517;28;76935;-66
2021/03/28 00:45:04;;;;;;;;;;;13.00;57.00;;;;;;4948752;28;77098;-66
2021/03/28 00:47:34;;;;;;;;;;;12.90;57.10;;;;;;4956898;28;75509;-66
2021/03/28 00:50:26;;;;;;;;;;;12.90;57.20;;;;;;4950748;28;75370;-66
2021/03/28 00:52:59;;;;;;;;;;;12.90;57.30;;;;;;4951031;28;74406;-66
2021/03/28 00:55:26;;;;;;;;;;;12.90;57.30;;;;;;4950283;28;77245;-66
2021/03/28 00:58:10;;;;;;;;;;;12.90;57.30;;;;;;4948685;28;77019;-66
2021/03/28 01:00:37;;;;;;;;;;;12.90;57.30;;;;;;4950391;28;75202;-66
2021/03/28 01:03:09;;;;;;;;;;;12.90;57.40;;;;;;4950307;28;75225;-66
2021/03/28 01:05:41;;;;;;;;;;;12.80;57.50;;;;;;4949016;28;77191;-66
2021/03/28 01:08:09;;;;;;;;;;;12.80;57.50;;;;;;4949325;28;77330;-66
2021/03/28 01:10:38;;;;;;;;;;;12.80;57.50;;;;;;4950582;28;74969;-65
2021/03/28 01:13:24;;;;;;;;;;;12.70;57.90;;;;;;4950422;28;74983;-66
2021/03/28 01:16:00;;;;;;;;;;;12.60;57.60;;;;;;4958495;28;74576;-66
2021/03/28 01:18:32;;;;;;;;;;;12.50;57.80;;;;;;4948736;28;78239;-67
2021/03/28 01:21:16;;;;;;;;;;;12.50;57.90;;;;;;4950062;28;75347;-66
2021/03/28 01:23:43;;;;;;;;;;;12.40;58.00;;;;;;4950620;28;74485;-66
2021/03/28 01:26:15;;;;;;;;;;;12.40;58.00;;;;;;4949938;28;75181;-66
2021/03/28 01:28:40;;;;;;;;;;;12.30;58.80;;;;;;4950396;28;75821;-66
2021/03/28 01:31:25;;;;;;;;;;;12.30;58.50;;;;;;4949907;28;75001;-66
2021/03/28 01:34:08;;;;;;;;;;;12.20;59.20;;;;;;4950401;28;75183;-66
2021/03/28 01:36:42;;;;;;;;;;;12.10;59.80;;;;;;4950246;28;74422;-65
2021/03/28 01:39:19;;;;;;;;;;;12.00;60.00;;;;;;4950159;28;75787;-66
2021/03/28 01:41:53;;;;;;;;;;;11.90;59.50;;;;;;4950046;28;75338;-66
2021/03/28 01:44:23;;;;;;;;;;;11.90;59.50;;;;;;4950339;28;75244;-66
2021/03/28 01:46:51;;;;;;;;;;;11.90;59.90;;;;;;4949759;28;75241;-66
2021/03/28 01:49:35;;;;;;;;;;;11.80;60.60;;;;;;4949996;28;75412;-66
2021/03/28 01:52:07;;;;;;;;;;;11.80;60.10;;;;;;4953702;28;74428;-66
2021/03/28 01:54:33;;;;;;;;;;;11.70;59.90;;;;;;4952820;28;75430;-66
2021/03/28 01:57:17;;;;;;;;;;;11.60;60.00;;;;;;4951325;28;77948;-66
2021/03/28 02:00:01;;;;;;;;;;;11.60;59.90;;;;;;4952537;28;75323;-65
2021/03/28 02:02:42;;;;;;;;;;;11.50;60.30;;;;;;4952868;28;74995;-65
2021/03/28 02:05:07;;;;;;;;;;;11.40;60.90;;;;;;4952710;28;75156;-65
2021/03/28 02:07:51;;;;;;;;;;;11.40;60.60;;;;;;4952568;28;75290;-66
2021/03/28 02:10:41;;;;;;;;;;;11.30;61.10;;;;;;4950691;28;78050;-65
2021/03/28 02:13:17;;;;;;;;;;;11.10;61.30;;;;;;4950795;28;75944;-65
2021/03/28 02:15:46;;;;;;;;;;;11.00;62.30;;;;;;4952746;28;74510;-64
2021/03/28 02:18:15;;;;;;;;;;;10.90;62.40;;;;;;4950821;28;76607;-65
2021/03/28 02:20:45;;;;;;;;;;;10.80;62.70;;;;;;4952596;28;75068;-65
2021/03/28 02:23:20;;;;;;;;;;;10.60;63.00;;;;;;4952085;28;75395;-66
2021/03/28 02:25:49;;;;;;;;;;;10.50;63.40;;;;;;4952411;28;75191;-65
2021/03/28 02:28:24;;;;;;;;;;;10.50;63.20;;;;;;4952033;28;74888;-65
2021/03/28 02:30:53;;;;;;;;;;;10.50;62.70;;;;;;4952445;28;75046;-65
2021/03/28 02:33:27;;;;;;;;;;;10.50;62.90;;;;;;4954379;28;74508;-64
2021/03/28 02:36:12;;;;;;;;;;;10.50;62.60;;;;;;4950389;28;78441;-65
2021/03/28 02:38:40;;;;;;;;;;;10.50;62.70;;;;;;4952176;28;75140;-65
2021/03/28 02:41:12;;;;;;;;;;;10.50;63.00;;;;;;4951841;28;75263;-65
2021/03/28 02:43:42;;;;;;;;;;;10.40;63.50;;;;;;4950439;28;77545;-65
2021/03/28 02:46:15;;;;;;;;;;;10.40;63.70;;;;;;4950550;28;76205;-67
2021/03/28 02:48:48;;;;;;;;;;;10.30;64.20;;;;;;4950442;28;75218;-65
2021/03/28 02:51:28;;;;;;;;;;;10.20;63.90;;;;;;4952024;28;75205;-66
2021/03/28 02:54:11;;;;;;;;;;;10.20;64.40;;;;;;4952016;28;75252;-66
2021/03/28 02:57:00;;;;;;;;;;;10.20;64.30;;;;;;4952107;28;75083;-66
2021/03/28 02:59:44;;;;;;;;;;;10.20;63.80;;;;;;4949683;28;76078;-66
2021/03/28 03:02:13;;;;;;;;;;;10.10;64.10;;;;;;4950213;28;76327;-66
2021/03/28 03:04:45;;;;;;;;;;;10.10;64.00;;;;;;4951837;28;75171;-66
2021/03/28 03:07:11;;;;;;;;;;;10.10;63.70;;;;;;4951934;28;75271;-67
2021/03/28 03:09:54;;;;;;;;;;;10.20;63.70;;;;;;4951796;28;75176;-66
2021/03/28 03:12:29;;;;;;;;;;;10.20;63.50;;;;;;4950301;28;75744;-66
2021/03/28 03:14:55;;;;;;;;;;;10.10;64.20;;;;;;4949758;28;76340;-66
2021/03/28 03:17:39;;;;;;;;;;;10.10;64.20;;;;;;4949904;28;77418;-66
2021/03/28 03:20:13;;;;;;;;;;;10.10;63.90;;;;;;4949819;28;77167;-66
2021/03/28 03:22:51;;;;;;;;;;;10.00;63.90;;;;;;4951687;28;75112;-66
2021/03/28 03:25:29;;;;;;;;;;;10.00;64.10;;;;;;4951861;28;75056;-66
2021/03/28 03:28:00;;;;;;;;;;;10.00;64.30;;;;;;4950228;28;75629;-66
2021/03/28 03:30:26;;;;;;;;;;;10.00;64.20;;;;;;4951388;28;75243;-67
2021/03/28 03:33:00;;;;;;;;;;;10.00;64.10;;;;;;4951504;28;74495;-66
2021/03/28 03:35:26;;;;;;;;;;;10.00;63.90;;;;;;4951717;28;75636;-66
2021/03/28 03:38:10;;;;;;;;;;;10.00;64.00;;;;;;4951700;28;74533;-66
2021/03/28 03:40:46;;;;;;;;;;;9.90;64.90;;;;;;4951599;28;75062;-66
2021/03/28 03:43:12;;;;;;;;;;;9.90;65.20;;;;;;4951340;28;75169;-66
2021/03/28 03:45:44;;;;;;;;;;;9.90;65.60;;;;;;4949617;28;77757;-66
2021/03/28 03:48:09;;;;;;;;;;;9.80;65.30;;;;;;4951638;28;74428;-65
2021/03/28 03:50:44;;;;;;;;;;;9.80;64.80;;;;;;4951202;28;74620;-66
2021/03/28 03:53:15;;;;;;;;;;;9.90;64.70;;;;;;4951462;28;75049;-66
2021/03/28 03:56:05;;;;;;;;;;;9.90;64.40;;;;;;4951152;28;75030;-66
2021/03/28 03:58:37;;;;;;;;;;;9.90;64.50;;;;;;4949246;28;76133;-66
2021/03/28 04:01:21;;;;;;;;;;;10.00;64.30;;;;;;4949446;28;77214;-66
2021/03/28 04:04:00;;;;;;;;;;;10.00;64.00;;;;;;4950076;28;76908;-66
2021/03/28 04:06:34;;;;;;;;;;;10.10;63.90;;;;;;4951511;28;75438;-67
2021/03/28 04:09:18;;;;;;;;;;;10.10;63.80;;;;;;4949963;28;74478;-66
2021/03/28 04:11:49;;;;;;;;;;;10.10;63.70;;;;;;4951043;28;75001;-65
2021/03/28 04:14:18;;;;;;;;;;;10.00;63.70;;;;;;4950584;28;75296;-65
2021/03/28 04:17:02;;;;;;;;;;;10.00;63.80;;;;;;4949509;28;77241;-65
2021/03/28 04:19:46;;;;;;;;;;;10.00;64.20;;;;;;4950816;28;75214;-65
2021/03/28 04:22:14;;;;;;;;;;;9.90;64.30;;;;;;4950983;28;75064;-66
2021/03/28 04:24:43;;;;;;;;;;;9.90;64.90;;;;;;4949187;28;77299;-66
2021/03/28 04:27:08;;;;;;;;;;;9.90;65.50;;;;;;4951480;28;75763;-65
2021/03/28 04:29:34;;;;;;;;;;;9.80;65.10;;;;;;4951868;28;75149;-65
2021/03/28 04:32:03;;;;;;;;;;;9.80;65.30;;;;;;4950812;28;75176;-65
2021/03/28 04:34:38;;;;;;;;;;;9.70;65.70;;;;;;4950749;28;75242;-65
2021/03/28 04:37:14;;;;;;;;;;;9.60;65.40;;;;;;4951457;28;74542;-65
2021/03/28 04:39:46;;;;;;;;;;;9.60;65.30;;;;;;4950725;28;75309;-65
2021/03/28 04:42:32;;;;;;;;;;;9.60;65.30;;;;;;4950272;28;74458;-65
2021/03/28 04:45:16;;;;;;;;;;;9.60;65.20;;;;;;4950536;28;74983;-64
2021/03/28 04:48:00;;;;;;;;;;;9.60;65.30;;;;;;4951015;28;74462;-64
2021/03/28 04:50:38;;;;;;;;;;;9.60;65.90;;;;;;4950254;28;75069;-65
2021/03/28 04:53:03;;;;;;;;;;;9.50;65.70;;;;;;4950402;28;75399;-65
2021/03/28 04:55:49;;;;;;;;;;;9.60;65.50;;;;;;4948805;28;75822;-64
2021/03/28 04:58:31;;;;;;;;;;;9.60;66.00;;;;;;4949901;28;75206;-64
2021/03/28 05:00:59;;;;;;;;;;;9.50;66.70;;;;;;4948640;28;77182;-66
2021/03/28 05:03:34;;;;;;;;;;;9.40;67.10;;;;;;4950255;28;75174;-66
2021/03/28 05:06:06;;;;;;;;;;;9.40;66.70;;;;;;4950416;28;75309;-65
2021/03/28 05:08:34;;;;;;;;;;;9.40;66.80;;;;;;4950707;28;74353;-66
2021/03/28 05:11:08;;;;;;;;;;;9.40;66.50;;;;;;4950543;28;74537;-66
2021/03/28 05:13:37;;;;;;;;;;;9.40;66.70;;;;;;4950295;28;75236;-64
2021/03/28 05:16:02;;;;;;;;;;;9.30;66.30;;;;;;4950459;28;74418;-66
2021/03/28 05:18:40;;;;;;;;;;;9.40;66.60;;;;;;4950455;28;74414;-67
2021/03/28 05:21:09;;;;;;;;;;;9.40;66.30;;;;;;4948938;28;76314;-66
2021/03/28 05:23:50;;;;;;;;;;;9.40;67.10;;;;;;4949883;28;75157;-66
2021/03/28 05:26:34;;;;;;;;;;;9.30;66.60;;;;;;4949572;28;74526;-64
2021/03/28 05:28:59;;;;;;;;;;;9.30;67.10;;;;;;4950140;28;75043;-64
2021/03/28 05:31:25;;;;;;;;;;;9.20;67.30;;;;;;4948359;28;77704;-64
2021/03/28 05:34:09;;;;;;;;;;;9.20;67.50;;;;;;4949714;28;75295;-65
2021/03/28 05:36:53;;;;;;;;;;;9.20;67.00;;;;;;4950264;28;74338;-65
2021/03/28 05:39:37;;;;;;;;;;;9.20;66.90;;;;;;4949714;28;74509;-65
2021/03/28 05:42:05;;;;;;;;;;;9.20;66.60;;;;;;4949901;28;75216;-65
2021/03/28 05:44:50;;;;;;;;;;;9.20;66.70;;;;;;4950178;28;74355;-65
2021/03/28 05:47:24;;;;;;;;;;;9.20;66.80;;;;;;4950266;28;75847;-64
2021/03/28 05:50:10;;;;;;;;;;;9.20;66.70;;;;;;4949598;28;75218;-64
2021/03/28 05:52:55;;;;;;;;;;;9.10;66.90;;;;;;4948062;28;77482;-67
2021/03/28 05:55:30;;;;;;;;;;;9.10;66.90;;;;;;4947776;28;77087;-65
2021/03/28 05:58:01;;;;;;;;;;;9.10;67.00;;;;;;4947709;28;77110;-65
2021/03/28 06:00:46;;;;;;;;;;;9.00;67.60;;;;;;4949461;28;75189;-65
2021/03/28 06:03:11;;;;;;;;;;;9.00;67.20;;;;;;4949615;28;75230;-66
2021/03/28 06:05:37;;;;;;;;;;;8.90;67.10;;;;;;4949301;28;75843;-64
2021/03/28 06:08:17;;;;;;;;;;;8.90;67.50;;;;;;4949202;28;75057;-66
2021/03/28 06:10:46;;;;;;;;;;;8.90;67.40;;;;;;4947597;28;78374;-65
2021/03/28 06:13:20;;;;;;;;;;;8.90;67.60;;;;;;4949215;28;74582;-66
2021/03/28 06:15:58;;;;;;;;;;;8.90;67.30;;;;;;4949400;28;75493;-66
2021/03/28 06:18:43;;;;;;;;;;;8.90;67.40;;;;;;4947808;28;75236;-65
2021/03/28 06:21:23;;;;;;;;;;;8.90;67.40;;;;;;4949129;28;74484;-63
2021/03/28 06:23:58;;;;;;;;;;;8.90;67.40;;;;;;4950279;28;75168;-65
2021/03/28 06:26:44;;;;;;;;;;;8.90;67.10;;;;;;4949876;28;75629;-65
2021/03/28 06:29:29;;;;;;;;;;;9.00;66.90;;;;;;4947781;28;75370;-66
2021/03/28 06:32:13;;;;;;;;;;;9.00;66.60;;;;;;4948782;28;75754;-65
2021/03/28 06:34:57;;;;;;;;;;;9.10;66.50;;;;;;4949625;28;74446;-65
2021/03/28 06:37:31;;;;;;;;;;;9.20;66.20;;;;;;4951575;28;75077;-65
2021/03/28 06:40:03;;;;;;;;;;;9.10;66.70;;;;;;4950740;28;75489;-65
2021/03/28 06:42:29;;;;;;;;;;;9.20;66.20;;;;;;4951980;28;75147;-65
2021/03/28 06:45:12;;;;;;;;;;;9.20;66.10;;;;;;4952311;28;75396;-65
2021/03/28 06:47:57;;;;;;;;;;;9.30;65.90;;;;;;4951906;28;75263;-65
2021/03/28 06:50:22;;;;;;;;;;;9.30;65.70;;;;;;4950505;28;77225;-65
2021/03/28 06:53:06;;;;;;;;;;;9.30;65.60;;;;;;4951832;28;75329;-66
2021/03/28 06:55:35;;;;;;;;;;;9.30;66.00;;;;;;4950459;28;76493;-65
2021/03/28 06:58:19;;;;;;;;;;;9.40;65.90;;;;;;4951905;28;74699;-66
2021/03/28 07:01:03;;;;;;;;;;;9.40;65.60;;;;;;4950713;28;77840;-65
2021/03/28 07:03:47;;;;;;;;;;;9.40;65.30;;;;;;4950673;28;77157;-65
2021/03/28 07:06:25;;;;;;;;;;;9.50;65.30;;;;;;4952134;28;75400;-65
2021/03/28 07:09:00;;;;;;;;;;;9.50;65.40;;;;;;4952536;28;75189;-65
2021/03/28 07:11:28;;;;;;;;;;;9.50;65.50;;;;;;4952213;28;74380;-65
2021/03/28 07:14:12;;;;;;;;;;;9.50;65.50;;;;;;4952535;28;75233;-66
2021/03/28 07:16:56;;;;;;;;;;;9.50;65.20;;;;;;4952471;28;74427;-66
2021/03/28 07:19:22;;;;;;;;;;;9.70;64.90;;;;;;4952556;28;74441;-65
2021/03/28 07:21:50;;;;;;;;;;;9.80;64.70;;;;;;4952459;28;74609;-65
2021/03/28 07:24:28;;;;;;;;;;;9.90;64.50;;;;;;4952322;28;74524;-66
2021/03/28 07:27:12;;;;;;;;;;;9.90;64.30;;;;;;4950333;28;77086;-67
2021/03/28 07:29:44;;;;;;;;;;;9.90;64.20;;;;;;4950445;28;77287;-66
2021/03/28 07:32:18;;;;;;;;;;;10.00;63.70;;;;;;4952105;28;74454;-65
2021/03/28 07:34:59;;;;;;;;;;;10.20;63.60;;;;;;4951847;28;75051;-66
2021/03/28 07:37:37;;;;;;;;;;;10.20;63.50;;;;;;4950613;28;75494;-64
2021/03/28 07:40:15;;;;;;;;;;;10.40;63.20;;;;;;4952233;28;75261;-62
2021/03/28 07:42:59;;;;;;;;;;;10.50;63.00;;;;;;4950301;28;77408;-63
2021/03/28 07:45:36;;;;;;;;;;;10.50;62.50;;;;;;4950214;28;76018;-63
2021/03/28 07:48:17;;;;;;;;;;;10.50;62.60;;;;;;4946257;28;76331;-64
2021/03/28 07:50:48;;;;;;;;;;;10.50;62.80;;;;;;4950402;28;78076;-65
2021/03/28 07:53:20;;;;;;;;;;;10.60;63.00;;;;;;4952118;28;74443;-64
2021/03/28 07:55:51;;;;;;;;;;;10.60;62.80;;;;;;4950130;28;75593;-64
2021/03/28 07:58:20;;;;;;;;;;;10.80;62.50;;;;;;4951665;28;75022;-65
2021/03/28 08:01:04;;;;;;;;;;;10.90;62.50;;;;;;4951484;28;75132;-67
2021/03/28 08:03:36;;;;;;;;;;;11.00;62.00;;;;;;4951463;28;75210;-63
2021/03/28 08:06:13;;;;;;;;;;;11.20;61.70;;;;;;4951646;28;74419;-64
2021/03/28 08:08:50;;;;;;;;;;;11.30;61.60;;;;;;4949832;28;75731;-64
2021/03/28 08:11:29;;;;;;;;;;;11.40;61.30;;;;;;4951556;28;75767;-63
2021/03/28 08:14:13;;;;;;;;;;;11.50;60.90;;;;;;4950359;28;74524;-64
2021/03/28 08:16:54;;;;;;;;;;;11.70;60.80;;;;;;4951984;28;75028;-64
2021/03/28 08:19:38;;;;;;;;;;;11.80;60.50;;;;;;4950348;28;78191;-64
2021/03/28 08:22:14;;;;;;;;;;;11.90;60.20;;;;;;4951955;28;74930;-66
2021/03/28 08:25:06;;;;;;;;;;;12.10;59.80;;;;;;4949936;28;77242;-68
2021/03/28 08:27:44;;;;;;;;;;;12.30;59.50;;;;;;4951678;28;76183;-64
2021/03/28 08:30:18;;;;;;;;;;;12.40;59.00;;;;;;4951389;28;75213;-65
2021/03/28 08:32:47;;;;;;;;;;;12.60;58.70;;;;;;4949926;28;75509;-65
2021/03/28 08:35:28;;;;;;;;;;;12.80;58.30;;;;;;4951600;28;74376;-65
2021/03/28 08:37:57;;;;;;;;;;;13.00;58.20;;;;;;4949487;28;76359;-64
2021/03/28 08:40:25;;;;;;;;;;;13.10;57.20;;;;;;4951470;28;75273;-63
2021/03/28 08:43:09;;;;;;;;;;;13.30;56.90;;;;;;4950111;28;75704;-64
2021/03/28 08:45:58;;;;;;;;;;;13.40;56.40;;;;;;4952021;28;74679;-64
2021/03/28 08:48:32;;;;;;;;;;;13.60;56.20;;;;;;4950644;28;75630;-64
2021/03/28 08:51:04;;;;;;;;;;;13.80;55.40;;;;;;4951451;28;75092;-67
2021/03/28 08:53:44;;;;;;;;;;;13.90;55.30;;;;;;4949755;28;78697;-65
2021/03/28 08:56:28;;;;;;;;;;;13.90;54.80;;;;;;4951367;28;75082;-64
2021/03/28 08:58:54;;;;;;;;;;;14.00;54.70;;;;;;4950366;28;75910;-64
2021/03/28 09:01:43;;;;;;;;;;;14.10;54.50;;;;;;4951111;28;75079;-64
2021/03/28 09:04:32;;;;;;;;;;;14.30;54.00;;;;;;4948688;28;77713;-64
2021/03/28 09:07:00;;;;;;;;;;;14.40;53.90;;;;;;4951149;28;75345;-65
2021/03/28 09:09:45;;;;;;;;;;;14.60;53.60;;;;;;4950954;28;75282;-64
2021/03/28 09:12:17;;;;;;;;;;;14.80;53.00;;;;;;4950961;28;76569;-64
2021/03/28 09:14:58;;;;;;;;;;;15.00;52.30;;;;;;4950961;28;75428;-64
2021/03/28 09:17:26;;;;;;;;;;;15.10;51.90;;;;;;4949257;28;78054;-63
2021/03/28 09:19:52;;;;;;;;;;;15.40;51.40;;;;;;4951315;28;75262;-66
2021/03/28 09:22:19;;;;;;;;;;;15.50;51.00;;;;;;4950880;28;74542;-64
2021/03/28 09:25:08;;;;;;;;;;;15.70;50.30;;;;;;4950817;28;75365;-64
2021/03/28 09:27:49;;;;;;;;;;;15.90;49.90;;;;;;4949552;28;76767;-71
2021/03/28 09:30:40;;;;;;;;;;;16.10;49.20;;;;;;4950948;28;74982;-64
2021/03/28 09:33:24;;;;;;;;;;;16.30;48.40;;;;;;4951030;28;75217;-65
2021/03/28 09:36:10;;;;;;;;;;;16.50;47.70;;;;;;4951322;28;74532;-69
2021/03/28 09:38:54;;;;;;;;;;;16.70;47.50;;;;;;4951305;28;75261;-66
2021/03/28 09:41:38;;;;;;;;;;;16.90;46.70;;;;;;4950706;28;75238;-65
2021/03/28 09:44:22;;;;;;;;;;;17.10;46.00;;;;;;4951459;28;74533;-68
2021/03/28 09:47:08;;;;;;;;;;;17.40;45.20;;;;;;4950786;28;75210;-65
2021/03/28 09:49:33;;;;;;;;;;;17.60;43.90;;;;;;4949714;28;76239;-66
2021/03/28 09:51:59;;;;;;;;;;;17.90;44.40;;;;;;4951100;28;75442;-68
2021/03/28 09:54:43;;;;;;;;;;;18.10;43.00;;;;;;4949113;28;75587;-69
2021/03/28 09:57:18;;;;;;;;;;;18.30;43.00;;;;;;4950788;28;74650;-64
2021/03/28 09:59:46;;;;;;;;;;;18.50;41.90;;;;;;4950910;28;75229;-68
2021/03/28 10:02:25;;;;;;;;;;;18.70;42.50;;;;;;4950491;28;75249;-68
2021/03/28 10:05:10;;;;;;;;;;;18.90;41.50;;;;;;4950810;28;74878;-69
2021/03/28 10:07:47;;;;;;;;;;;19.00;40.50;;;;;;4950634;28;75857;-66
2021/03/28 10:10:19;;;;;;;;;;;19.20;40.70;;;;;;4951352;28;75457;-68
2021/03/28 10:12:52;;;;;;;;;;;19.40;39.40;;;;;;4952068;28;78469;-67
2021/03/28 10:15:23;;;;;;;;;;;19.60;39.30;;;;;;4954428;28;76281;-65
2021/03/28 10:18:07;;;;;;;;;;;19.80;38.90;;;;;;4957552;28;74704;-67
2021/03/28 10:20:36;;;;;;;;;;;19.90;37.20;;;;;;4954440;28;75443;-66
2021/03/28 10:23:20;;;;;;;;;;;20.10;37.60;;;;;;4957560;28;74982;-67
2021/03/28 10:25:46;;;;;;;;;;;20.30;37.90;;;;;;4959417;28;75391;-69
2021/03/28 10:28:11;;;;;;;;;;;20.60;37.00;;;;;;4958349;28;74562;-65
2021/03/28 10:30:55;;;;;;;;;;;20.80;37.00;;;;;;4958413;28;75640;-69
2021/03/28 10:33:23;;;;;;;;;;;21.00;35.80;;;;;;4955408;28;74467;-65
2021/03/28 10:36:08;;;;;;;;;;;21.10;36.20;;;;;;4954117;28;75129;-67
2021/03/28 10:38:56;;;;;;;;;;;21.40;35.90;;;;;;4954752;28;75171;-68
2021/03/28 10:41:21;;;;;;;;;;;21.80;35.40;;;;;;4953374;28;75447;-69
2021/03/28 10:43:53;;;;;;;;;;;22.10;34.80;;;;;;4951401;28;74670;-64
2021/03/28 10:46:19;;;;;;;;;;;22.40;34.10;;;;;;4951240;28;77825;-65
2021/03/28 10:48:56;;;;;;;;;;;22.80;33.50;;;;;;4953026;28;74586;-64
2021/03/28 10:51:39;;;;;;;;;;;23.10;33.20;;;;;;4953122;28;74404;-66
2021/03/28 10:54:26;;;;;;;;;;;23.40;32.80;;;;;;4951065;28;75612;-64
2021/03/28 10:57:10;;;;;;;;;;;23.90;32.00;;;;;;4952671;28;75277;-64
2021/03/28 10:59:39;;;;;;;;;;;24.40;31.50;;;;;;4950280;28;77552;-67
2021/03/28 11:02:04;;;;;;;;;;;24.90;31.10;;;;;;4952411;28;75354;-64
2021/03/28 11:04:48;;;;;;;;;;;25.30;29.70;;;;;;4950743;28;77413;-66
2021/03/28 11:07:26;;;;;;;;;;;25.60;29.40;;;;;;4950673;28;76177;-67
2021/03/28 11:10:11;;;;;;;;;;;25.90;29.60;;;;;;4952906;28;74852;-64
2021/03/28 11:12:36;;;;;;;;;;;26.20;29.50;;;;;;4950702;28;76123;-65
2021/03/28 11:15:21;;;;;;;;;;;26.90;28.50;;;;;;4952112;28;75178;-65
2021/03/28 11:17:49;;;;;;;;;;;27.40;27.80;;;;;;4950733;28;78445;-65
2021/03/28 11:20:21;;;;;;;;;;;28.00;27.30;;;;;;4952306;28;74345;-64
2021/03/28 11:22:47;;;;;;;;;;;28.70;26.40;;;;;;4952279;28;74626;-65
2021/03/28 11:25:21;;;;;;;;;;;29.40;25.90;;;;;;4952285;28;74469;-64
2021/03/28 11:27:53;;;;;;;;;;;30.00;24.80;;;;;;4952418;28;75303;-65
2021/03/28 11:30:34;;;;;;;;;;;30.80;24.20;;;;;;4950293;28;75923;-66
2021/03/28 11:33:02;;;;;;;;;;;31.40;23.70;;;;;;4950543;28;77195;-66
2021/03/28 11:35:48;;;;;;;;;;;31.90;22.90;;;;;;4951024;28;76717;-65
2021/03/28 11:38:17;;;;;;;;;;;32.60;22.30;;;;;;4949701;28;77348;-65
2021/03/28 11:41:01;;;;;;;;;;;33.50;21.90;;;;;;4950068;28;77002;-67
2021/03/28 11:43:30;;;;;;;;;;;34.00;21.50;;;;;;4952209;28;75820;-69
2021/03/28 11:46:05;;;;;;;;;;;34.50;20.90;;;;;;4950307;28;76622;-64
2021/03/28 11:48:36;;;;;;;;;;;34.90;20.60;;;;;;4950245;28;74728;-64
2021/03/28 11:51:14;;;;;;;;;;;35.60;19.90;;;;;;4951858;28;75242;-66
2021/03/28 11:53:40;;;;;;;;;;;36.30;19.60;;;;;;4952139;28;74534;-65
2021/03/28 11:56:25;;;;;;;;;;;37.00;19.20;;;;;;4950435;28;76166;-67
2021/03/28 11:58:51;;;;;;;;;;;37.50;18.80;;;;;;4949338;28;76640;-65
2021/03/28 12:01:35;;;;;;;;;;;37.70;18.80;;;;;;4951988;28;75601;-65
2021/03/28 12:04:24;;;;;;;;;;;38.00;18.30;;;;;;4950152;28;75362;-66
2021/03/28 12:06:58;;;;;;;;;;;38.40;18.10;;;;;;4953910;28;74573;-65
2021/03/28 12:09:26;;;;;;;;;;;38.60;17.80;;;;;;4951933;28;74706;-64
2021/03/28 12:11:52;;;;;;;;;;;37.90;18.30;;;;;;4952948;28;75031;-65
2021/03/28 12:14:24;;;;;;;;;;;35.70;19.00;;;;;;4950741;28;74665;-65
2021/03/28 12:17:08;;;;;;;;;;;34.70;20.50;;;;;;4952210;28;74495;-64
2021/03/28 12:19:47;;;;;;;;;;;35.60;20.10;;;;;;4951634;28;75305;-65
2021/03/28 12:22:32;;;;;;;;;;;35.80;19.80;;;;;;4950128;28;75434;-66
2021/03/28 12:25:04;;;;;;;;;;;36.00;19.60;;;;;;4950978;28;75332;-65
2021/03/28 12:27:39;;;;;;;;;;;36.70;19.10;;;;;;4951355;28;75160;-65
2021/03/28 12:30:25;;;;;;;;;;;35.60;19.00;;;;;;4950020;28;75721;-64
2021/03/28 12:32:57;;;;;;;;;;;33.90;17.90;;;;;;4953152;28;76519;-66
2021/03/28 12:35:43;;;;;;;;;;;31.50;22.00;;;;;;4951665;28;75712;-64
2021/03/28 12:38:21;;;;;;;;;;;30.60;22.50;;;;;;4953598;28;75224;-64
2021/03/28 12:40:46;;;;;;;;;;;30.30;23.10;;;;;;4950265;28;74816;-65
2021/03/28 12:43:22;;;;;;;;;;;30.20;22.90;;;;;;4951237;28;75261;-68
2021/03/28 12:45:47;;;;;;;;;;;29.90;23.30;;;;;;4949814;28;76189;-65
2021/03/28 12:48:21;;;;;;;;;;;29.50;24.50;;;;;;4949953;28;77214;-65
2021/03/28 12:50:47;;;;;;;;;;;29.30;23.80;;;;;;4951104;28;75346;-65
2021/03/28 12:53:20;;;;;;;;;;;29.40;23.70;;;;;;4951227;28;74962;-66
2021/03/28 12:55:48;;;;;;;;;;;29.70;23.50;;;;;;4951196;28;75403;-65
2021/03/28 12:58:16;;;;;;;;;;;29.70;23.50;;;;;;4949763;28;76968;-69
2021/03/28 13:01:02;;;;;;;;;;;29.60;23.40;;;;;;4950285;28;78225;-67
2021/03/28 13:03:27;;;;;;;;;;;29.10;23.90;;;;;;4951018;28;75237;-65
2021/03/28 13:06:02;;;;;;;;;;;28.60;24.00;;;;;;4951033;28;74939;-65
2021/03/28 13:08:33;;;;;;;;;;;28.20;24.60;;;;;;4950258;28;75168;-65
2021/03/28 13:11:03;;;;;;;;;;;27.90;24.90;;;;;;4949655;28;76651;-65
2021/03/28 13:13:30;;;;;;;;;;;27.50;24.60;;;;;;4951185;28;75246;-67
2021/03/28 13:15:57;;;;;;;;;;;27.20;25.50;;;;;;4951505;28;75176;-65
2021/03/28 13:18:22;;;;;;;;;;;27.00;25.50;;;;;;4951266;28;75677;-65
2021/03/28 13:20:53;;;;;;;;;;;27.10;24.60;;;;;;4949649;28;76598;-65
2021/03/28 13:23:22;;;;;;;;;;;27.50;24.70;;;;;;4951654;28;75276;-69
2021/03/28 13:26:04;;;;;;;;;;;28.70;23.70;;;;;;4951588;28;75378;-65
2021/03/28 13:28:33;;;;;;;;;;;29.70;22.60;;;;;;4949425;28;77199;-64
2021/03/28 13:31:19;;;;;;;;;;;30.20;22.50;;;;;;4951579;28;74817;-64
2021/03/28 13:33:46;;;;;;;;;;;30.40;21.90;;;;;;4949827;28;75433;-67
2021/03/28 13:36:20;;;;;;;;;;;30.60;21.60;;;;;;4948932;28;75710;-64
2021/03/28 13:39:02;;;;;;;;;;;31.50;21.20;;;;;;4948807;28;76524;-65
2021/03/28 13:41:30;;;;;;;;;;;32.90;20.60;;;;;;4949211;28;77428;-66
2021/03/28 13:44:05;;;;;;;;;;;33.90;19.40;;;;;;4951324;28;74406;-65
2021/03/28 13:46:31;;;;;;;;;;;34.00;19.70;;;;;;4949248;28;75180;-68
2021/03/28 13:49:04;;;;;;;;;;;33.90;19.30;;;;;;4949239;28;75641;-65
2021/03/28 13:51:31;;;;;;;;;;;33.20;19.90;;;;;;4950742;28;75137;-66
2021/03/28 13:54:05;;;;;;;;;;;32.50;20.50;;;;;;4950590;28;75035;-64
2021/03/28 13:56:36;;;;;;;;;;;31.80;20.90;;;;;;4948812;28;78073;-67
2021/03/28 13:59:08;;;;;;;;;;;31.10;21.10;;;;;;4949803;28;75113;-64
2021/03/28 14:01:39;;;;;;;;;;;31.00;21.70;;;;;;4950097;28;75226;-66
2021/03/28 14:04:23;;;;;;;;;;;31.90;20.90;;;;;;4949951;28;75228;-66
2021/03/28 14:07:01;;;;;;;;;;;32.80;20.00;;;;;;4948595;28;74742;-65
2021/03/28 14:09:31;;;;;;;;;;;32.50;20.20;;;;;;4948788;28;74757;-65
2021/03/28 14:11:59;;;;;;;;;;;31.70;19.30;;;;;;4950167;28;75104;-66
2021/03/28 14:14:27;;;;;;;;;;;31.00;21.60;;;;;;4948362;28;75948;-66
2021/03/28 14:16:54;;;;;;;;;;;30.80;21.30;;;;;;4948364;28;75407;-64
2021/03/28 14:19:33;;;;;;;;;;;30.60;20.90;;;;;;4948249;28;77394;-66
2021/03/28 14:22:10;;;;;;;;;;;30.20;21.80;;;;;;4949685;28;75107;-66
2021/03/28 14:24:36;;;;;;;;;;;29.90;21.90;;;;;;4948084;28;76576;-66
2021/03/28 14:27:08;;;;;;;;;;;29.90;21.70;;;;;;4950017;28;75284;-65
2021/03/28 14:29:33;;;;;;;;;;;30.60;21.40;;;;;;4950582;28;74536;-65
2021/03/28 14:32:03;;;;;;;;;;;31.80;20.70;;;;;;4949962;28;75134;-65
2021/03/28 14:34:29;;;;;;;;;;;33.60;19.80;;;;;;4951225;28;75215;-65
2021/03/28 14:37:00;;;;;;;;;;;35.60;18.10;;;;;;4950604;28;75143;-73
2021/03/28 14:39:44;;;;;;;;;;;37.10;17.00;;;;;;4949623;28;75762;-65
2021/03/28 14:42:18;;;;;;;;;;;38.30;16.40;;;;;;4949884;28;75550;-66
2021/03/28 14:45:15;;;;;;;;;;;39.20;16.20;;;;;;4947954;28;78352;-64
2021/03/28 14:47:53;;;;;;;;;;;39.60;15.70;;;;;;4947954;28;75323;-65
2021/03/28 14:50:19;;;;;;;;;;;39.00;16.00;;;;;;4948234;28;75652;-64
2021/03/28 14:52:59;;;;;;;;;;;38.40;16.30;;;;;;4949734;28;74518;-69
2021/03/28 14:55:25;;;;;;;;;;;37.40;16.90;;;;;;4949457;28;75101;-66
2021/03/28 14:58:03;;;;;;;;;;;37.30;17.00;;;;;;4951481;28;75224;-68
2021/03/28 15:00:35;;;;;;;;;;;38.30;16.80;;;;;;4951190;28;76955;-65
2021/03/28 15:03:04;;;;;;;;;;;39.40;16.40;;;;;;4952092;28;75420;-70
2021/03/28 15:05:29;;;;;;;;;;;40.40;15.50;;;;;;4952857;28;75269;-69
2021/03/28 15:07:55;;;;;;;;;;;40.90;15.50;;;;;;4952734;28;75195;-68